sensor_id;sensor_type;location;lat;lon;timestamp;temperature;humidity
39925;DHT22;25592;49.986;11.618;2024-03-02T00:01:42;7.90;99.90
39925;DHT22;25592;49.986;11.618;2024-03-02T00:04:28;7.90;99.90
39925;DHT22;25592;49.986;11.618;2024-03-02T00:07:14;7.90;99.90
39925;DHT22;25592;49.986;11.618;2024-03-02T00:10:00;7.90;99.90
39925;DHT22;25592;49.986;11.618;2024-03-02T00:12:47;7.90;99.90
39925;DHT22;25592;49.986;11.618;2024-03-02T00:15:53;7.90;99.90
39925;DHT22;25592;49.986;11.618;2024-03-02T00:18:38;7.90;99.90
39925;DHT22;25592;49.986;11.618;2024-03-02T00:21:27;7.90;99.90
39925;DHT22;25592;49.986;11.618;2024-03-02T00:24:34;8.00;99.90
39925;DHT22;25592;49.986;11.618;2024-03-02T00:27:19;7.90;99.90
39925;DHT22;25592;49.986;11.618;2024-03-02T00:33:18;8.00;99.90
39925;DHT22;25592;49.986;11.618;2024-03-02T00:36:04;7.90;99.90
39925;DHT22;25592;49.986;11.618;2024-03-02T00:38:51;8.00;99.90
39925;DHT22;25592;49.986;11.618;2024-03-02T00:41:37;7.90;99.90
39925;DHT22;25592;49.986;11.618;2024-03-02T00:44:25;8.00;99.90
39925;DHT22;25592;49.986;11.618;2024-03-02T00:47:11;8.00;99.90
39925;DHT22;25592;49.986;11.618;2024-03-02T00:49:56;8.00;99.90
39925;DHT22;25592;49.986;11.618;2024-03-02T00:52:42;8.00;99.90
39925;DHT22;25592;49.986;11.618;2024-03-02T00:55:27;8.00;99.90
39925;DHT22;25592;49.986;11.618;2024-03-02T00:58:13;8.00;99.90
39925;DHT22;25592;49.986;11.618;2024-03-02T01:00:58;8.00;99.90
39925;DHT22;25592;49.986;11.618;2024-03-02T01:03:44;8.00;99.90
39925;DHT22;25592;49.986;11.618;2024-03-02T01:06:30;8.00;99.90
39925;DHT22;25592;49.986;11.618;2024-03-02T01:09:15;8.00;99.90
39925;DHT22;25592;49.986;11.618;2024-03-02T01:12:02;8.00;99.90
39925;DHT22;25592;49.986;11.618;2024-03-02T01:14:48;8.00;99.90
39925;DHT22;25592;49.986;11.618;2024-03-02T01:17:33;8.00;99.90
39925;DHT22;25592;49.986;11.618;2024-03-02T01:20:19;8.10;99.90
39925;DHT22;25592;49.986;11.618;2024-03-02T01:23:04;8.00;99.90
39925;DHT22;25592;49.986;11.618;2024-03-02T01:25:50;8.10;99.90
39925;DHT22;25592;49.986;11.618;2024-03-02T01:28:36;8.00;99.90
39925;DHT22;25592;49.986;11.618;2024-03-02T01:31:22;8.00;99.90
39925;DHT22;25592;49.986;11.618;2024-03-02T01:34:08;8.00;99.90
39925;DHT22;25592;49.986;11.618;2024-03-02T01:36:53;8.00;99.90
39925;DHT22;25592;49.986;11.618;2024-03-02T01:39:39;8.00;99.90
39925;DHT22;25592;49.986;11.618;2024-03-02T01:42:24;8.00;99.90
39925;DHT22;25592;49.986;11.618;2024-03-02T01:45:10;8.00;99.90
39925;DHT22;25592;49.986;11.618;2024-03-02T01:47:56;8.00;99.90
39925;DHT22;25592;49.986;11.618;2024-03-02T01:50:41;8.00;99.90
39925;DHT22;25592;49.986;11.618;2024-03-02T01:53:27;8.00;99.90
39925;DHT22;25592;49.986;11.618;2024-03-02T01:56:13;8.00;99.90
39925;DHT22;25592;49.986;11.618;2024-03-02T01:58:59;7.90;99.90
39925;DHT22;25592;49.986;11.618;2024-03-02T02:01:44;8.00;99.90
39925;DHT22;25592;49.986;11.618;2024-03-02T02:04:29;7.90;99.90
39925;DHT22;25592;49.986;11.618;2024-03-02T02:07:15;8.00;99.90
39925;DHT22;25592;49.986;11.618;2024-03-02T02:10:01;8.00;99.90
39925;DHT22;25592;49.986;11.618;2024-03-02T02:12:47;8.00;99.90
39925;DHT22;25592;49.986;11.618;2024-03-02T02:15:32;8.00;99.90
39925;DHT22;25592;49.986;11.618;2024-03-02T02:18:19;7.90;99.90
39925;DHT22;25592;49.986;11.618;2024-03-02T02:21:05;8.00;99.90
39925;DHT22;25592;49.986;11.618;2024-03-02T02:23:50;8.00;99.90
39925;DHT22;25592;49.986;11.618;2024-03-02T02:26:36;8.00;99.90
39925;DHT22;25592;49.986;11.618;2024-03-02T02:29:21;8.00;99.90
39925;DHT22;25592;49.986;11.618;2024-03-02T02:32:07;8.00;99.90
39925;DHT22;25592;49.986;11.618;2024-03-02T02:34:53;8.00;99.90
39925;DHT22;25592;49.986;11.618;2024-03-02T02:37:38;8.00;99.90
39925;DHT22;25592;49.986;11.618;2024-03-02T02:40:24;8.00;99.90
39925;DHT22;25592;49.986;11.618;2024-03-02T02:43:09;8.00;99.90
39925;DHT22;25592;49.986;11.618;2024-03-02T02:45:55;8.10;99.90
39925;DHT22;25592;49.986;11.618;2024-03-02T02:48:40;8.00;99.90
39925;DHT22;25592;49.986;11.618;2024-03-02T02:51:26;8.10;99.90
39925;DHT22;25592;49.986;11.618;2024-03-02T02:54:11;8.00;99.90
39925;DHT22;25592;49.986;11.618;2024-03-02T02:56:57;8.00;99.90
39925;DHT22;25592;49.986;11.618;2024-03-02T02:59:42;8.10;99.90
39925;DHT22;25592;49.986;11.618;2024-03-02T03:02:28;8.00;99.90
39925;DHT22;25592;49.986;11.618;2024-03-02T03:05:14;8.00;99.90
39925;DHT22;25592;49.986;11.618;2024-03-02T03:07:59;8.10;99.90
39925;DHT22;25592;49.986;11.618;2024-03-02T03:10:45;8.10;99.90
39925;DHT22;25592;49.986;11.618;2024-03-02T03:13:34;8.10;99.90
39925;DHT22;25592;49.986;11.618;2024-03-02T03:16:19;8.10;99.90
39925;DHT22;25592;49.986;11.618;2024-03-02T03:19:04;8.10;99.90
39925;DHT22;25592;49.986;11.618;2024-03-02T03:21:50;8.00;99.90
39925;DHT22;25592;49.986;11.618;2024-03-02T03:24:35;8.00;99.90
39925;DHT22;25592;49.986;11.618;2024-03-02T03:27:21;8.10;99.90
39925;DHT22;25592;49.986;11.618;2024-03-02T03:30:07;8.10;99.90
39925;DHT22;25592;49.986;11.618;2024-03-02T03:32:52;8.10;99.90
39925;DHT22;25592;49.986;11.618;2024-03-02T03:35:38;8.10;99.90
39925;DHT22;25592;49.986;11.618;2024-03-02T03:38:24;8.10;99.90
39925;DHT22;25592;49.986;11.618;2024-03-02T03:41:09;8.20;99.90
39925;DHT22;25592;49.986;11.618;2024-03-02T03:43:54;8.20;99.90
39925;DHT22;25592;49.986;11.618;2024-03-02T03:46:40;8.10;99.90
39925;DHT22;25592;49.986;11.618;2024-03-02T03:49:26;8.10;99.90
39925;DHT22;25592;49.986;11.618;2024-03-02T03:52:11;8.10;99.90
39925;DHT22;25592;49.986;11.618;2024-03-02T03:54:57;8.10;99.90
39925;DHT22;25592;49.986;11.618;2024-03-02T03:57:42;8.10;99.90
39925;DHT22;25592;49.986;11.618;2024-03-02T04:00:28;8.20;99.90
39925;DHT22;25592;49.986;11.618;2024-03-02T04:03:13;8.10;99.90
39925;DHT22;25592;49.986;11.618;2024-03-02T04:05:58;8.00;99.90
39925;DHT22;25592;49.986;11.618;2024-03-02T04:08:44;8.10;99.90
39925;DHT22;25592;49.986;11.618;2024-03-02T04:11:29;8.10;99.90
39925;DHT22;25592;49.986;11.618;2024-03-02T04:14:15;8.10;99.90
39925;DHT22;25592;49.986;11.618;2024-03-02T04:17:01;8.20;99.90
39925;DHT22;25592;49.986;11.618;2024-03-02T04:19:46;8.20;99.90
39925;DHT22;25592;49.986;11.618;2024-03-02T04:22:33;8.20;99.90
39925;DHT22;25592;49.986;11.618;2024-03-02T04:25:19;8.20;99.90
39925;DHT22;25592;49.986;11.618;2024-03-02T04:28:05;8.20;99.90
39925;DHT22;25592;49.986;11.618;2024-03-02T04:30:50;8.20;99.90
39925;DHT22;25592;49.986;11.618;2024-03-02T04:33:36;8.10;99.90
39925;DHT22;25592;49.986;11.618;2024-03-02T04:36:21;8.20;99.90
39925;DHT22;25592;49.986;11.618;2024-03-02T04:39:07;8.10;99.90
39925;DHT22;25592;49.986;11.618;2024-03-02T04:41:54;8.20;99.90
39925;DHT22;25592;49.986;11.618;2024-03-02T04:44:40;8.00;99.90
39925;DHT22;25592;49.986;11.618;2024-03-02T04:47:26;8.00;99.90
39925;DHT22;25592;49.986;11.618;2024-03-02T04:50:11;8.00;99.90
39925;DHT22;25592;49.986;11.618;2024-03-02T04:52:56;8.00;99.90
39925;DHT22;25592;49.986;11.618;2024-03-02T04:55:42;8.10;99.90
39925;DHT22;25592;49.986;11.618;2024-03-02T04:58:28;8.20;99.90
39925;DHT22;25592;49.986;11.618;2024-03-02T05:01:13;8.20;99.90
39925;DHT22;25592;49.986;11.618;2024-03-02T05:03:58;8.10;99.90
39925;DHT22;25592;49.986;11.618;2024-03-02T05:06:44;8.00;99.90
39925;DHT22;25592;49.986;11.618;2024-03-02T05:09:29;8.10;99.90
39925;DHT22;25592;49.986;11.618;2024-03-02T05:12:15;8.10;99.90
39925;DHT22;25592;49.986;11.618;2024-03-02T05:15:18;8.10;99.90
39925;DHT22;25592;49.986;11.618;2024-03-02T05:18:04;8.10;99.90
39925;DHT22;25592;49.986;11.618;2024-03-02T05:20:50;8.10;99.90
39925;DHT22;25592;49.986;11.618;2024-03-02T05:23:35;8.10;99.90
39925;DHT22;25592;49.986;11.618;2024-03-02T05:26:22;8.10;99.90
39925;DHT22;25592;49.986;11.618;2024-03-02T05:29:07;8.10;99.90
39925;DHT22;25592;49.986;11.618;2024-03-02T05:31:53;8.20;99.90
39925;DHT22;25592;49.986;11.618;2024-03-02T05:34:38;8.20;99.90
39925;DHT22;25592;49.986;11.618;2024-03-02T05:37:24;8.20;99.90
39925;DHT22;25592;49.986;11.618;2024-03-02T05:40:09;8.20;99.90
39925;DHT22;25592;49.986;11.618;2024-03-02T05:42:56;8.10;99.90
39925;DHT22;25592;49.986;11.618;2024-03-02T05:45:41;8.10;99.90
39925;DHT22;25592;49.986;11.618;2024-03-02T05:48:27;8.10;99.90
39925;DHT22;25592;49.986;11.618;2024-03-02T05:51:12;8.00;99.90
39925;DHT22;25592;49.986;11.618;2024-03-02T05:53:58;8.00;99.90
39925;DHT22;25592;49.986;11.618;2024-03-02T05:56:43;8.00;99.90
39925;DHT22;25592;49.986;11.618;2024-03-02T05:59:29;8.10;99.90
39925;DHT22;25592;49.986;11.618;2024-03-02T06:02:14;8.10;99.90
39925;DHT22;25592;49.986;11.618;2024-03-02T06:04:59;8.10;99.90
39925;DHT22;25592;49.986;11.618;2024-03-02T06:07:45;8.10;99.90
39925;DHT22;25592;49.986;11.618;2024-03-02T06:10:30;8.10;99.90
39925;DHT22;25592;49.986;11.618;2024-03-02T06:13:16;8.20;99.90
39925;DHT22;25592;49.986;11.618;2024-03-02T06:16:01;8.20;99.90
39925;DHT22;25592;49.986;11.618;2024-03-02T06:18:47;8.20;99.90
39925;DHT22;25592;49.986;11.618;2024-03-02T06:21:32;8.30;99.90
39925;DHT22;25592;49.986;11.618;2024-03-02T06:24:18;8.30;99.90
39925;DHT22;25592;49.986;11.618;2024-03-02T06:27:04;8.30;99.90
39925;DHT22;25592;49.986;11.618;2024-03-02T06:29:50;8.30;99.90
39925;DHT22;25592;49.986;11.618;2024-03-02T06:32:36;8.30;99.90
39925;DHT22;25592;49.986;11.618;2024-03-02T06:35:22;8.30;99.90
39925;DHT22;25592;49.986;11.618;2024-03-02T06:38:07;8.40;99.90
39925;DHT22;25592;49.986;11.618;2024-03-02T06:40:53;8.40;99.90
39925;DHT22;25592;49.986;11.618;2024-03-02T06:43:38;8.40;99.90
39925;DHT22;25592;49.986;11.618;2024-03-02T06:46:24;8.50;99.90
39925;DHT22;25592;49.986;11.618;2024-03-02T06:49:10;8.50;99.90
39925;DHT22;25592;49.986;11.618;2024-03-02T06:51:57;8.50;99.90
39925;DHT22;25592;49.986;11.618;2024-03-02T06:54:43;8.50;99.90
39925;DHT22;25592;49.986;11.618;2024-03-02T06:57:29;8.60;99.90
39925;DHT22;25592;49.986;11.618;2024-03-02T07:00:15;8.70;99.90
39925;DHT22;25592;49.986;11.618;2024-03-02T07:03:01;8.70;99.90
39925;DHT22;25592;49.986;11.618;2024-03-02T07:05:46;8.70;99.90
39925;DHT22;25592;49.986;11.618;2024-03-02T07:08:34;8.70;99.90
39925;DHT22;25592;49.986;11.618;2024-03-02T07:11:19;8.70;99.90
39925;DHT22;25592;49.986;11.618;2024-03-02T07:14:05;8.80;99.90
39925;DHT22;25592;49.986;11.618;2024-03-02T07:16:51;8.80;99.90
39925;DHT22;25592;49.986;11.618;2024-03-02T07:19:38;8.70;99.90
39925;DHT22;25592;49.986;11.618;2024-03-02T07:22:25;8.60;99.90
39925;DHT22;25592;49.986;11.618;2024-03-02T07:25:10;8.60;99.90
39925;DHT22;25592;49.986;11.618;2024-03-02T07:28:16;8.70;99.90
39925;DHT22;25592;49.986;11.618;2024-03-02T07:31:02;8.60;99.90
39925;DHT22;25592;49.986;11.618;2024-03-02T07:33:48;8.60;99.90
39925;DHT22;25592;49.986;11.618;2024-03-02T07:36:34;8.70;99.90
39925;DHT22;25592;49.986;11.618;2024-03-02T07:39:22;8.70;99.90
39925;DHT22;25592;49.986;11.618;2024-03-02T07:42:08;8.70;99.90
39925;DHT22;25592;49.986;11.618;2024-03-02T07:44:53;8.80;99.90
39925;DHT22;25592;49.986;11.618;2024-03-02T07:47:39;8.80;99.90
39925;DHT22;25592;49.986;11.618;2024-03-02T07:50:25;8.70;99.90
39925;DHT22;25592;49.986;11.618;2024-03-02T07:53:10;8.60;99.90
39925;DHT22;25592;49.986;11.618;2024-03-02T07:55:57;8.60;99.90
39925;DHT22;25592;49.986;11.618;2024-03-02T07:58:47;8.60;99.90
39925;DHT22;25592;49.986;11.618;2024-03-02T08:01:34;8.50;99.90
39925;DHT22;25592;49.986;11.618;2024-03-02T08:04:19;8.60;99.90
39925;DHT22;25592;49.986;11.618;2024-03-02T08:07:05;8.60;99.90
39925;DHT22;25592;49.986;11.618;2024-03-02T08:09:50;8.60;99.90
39925;DHT22;25592;49.986;11.618;2024-03-02T08:12:36;8.70;99.90
39925;DHT22;25592;49.986;11.618;2024-03-02T08:15:21;8.70;99.90
39925;DHT22;25592;49.986;11.618;2024-03-02T08:18:07;8.90;99.90
39925;DHT22;25592;49.986;11.618;2024-03-02T08:20:53;8.90;99.90
39925;DHT22;25592;49.986;11.618;2024-03-02T08:23:39;9.00;99.90
39925;DHT22;25592;49.986;11.618;2024-03-02T08:26:28;9.00;99.90
39925;DHT22;25592;49.986;11.618;2024-03-02T08:29:16;9.10;99.90
39925;DHT22;25592;49.986;11.618;2024-03-02T08:32:02;8.90;99.90
39925;DHT22;25592;49.986;11.618;2024-03-02T08:34:47;9.00;99.90
39925;DHT22;25592;49.986;11.618;2024-03-02T08:37:33;8.80;99.90
39925;DHT22;25592;49.986;11.618;2024-03-02T08:40:18;8.90;99.90
39925;DHT22;25592;49.986;11.618;2024-03-02T08:43:03;8.80;99.90
39925;DHT22;25592;49.986;11.618;2024-03-02T08:45:49;9.10;99.90
39925;DHT22;25592;49.986;11.618;2024-03-02T08:48:35;9.20;99.90
39925;DHT22;25592;49.986;11.618;2024-03-02T08:51:21;9.20;99.90
39925;DHT22;25592;49.986;11.618;2024-03-02T08:54:07;9.00;99.90
39925;DHT22;25592;49.986;11.618;2024-03-02T08:56:52;9.10;99.90
39925;DHT22;25592;49.986;11.618;2024-03-02T08:59:38;9.10;99.90
39925;DHT22;25592;49.986;11.618;2024-03-02T09:02:24;9.30;99.90
39925;DHT22;25592;49.986;11.618;2024-03-02T09:05:10;9.40;99.90
39925;DHT22;25592;49.986;11.618;2024-03-02T09:07:56;9.30;99.90
39925;DHT22;25592;49.986;11.618;2024-03-02T09:10:41;9.30;99.90
39925;DHT22;25592;49.986;11.618;2024-03-02T09:13:26;9.40;99.90
39925;DHT22;25592;49.986;11.618;2024-03-02T09:16:12;9.50;99.90
39925;DHT22;25592;49.986;11.618;2024-03-02T09:18:58;9.50;99.90
39925;DHT22;25592;49.986;11.618;2024-03-02T09:21:43;9.20;99.90
39925;DHT22;25592;49.986;11.618;2024-03-02T09:24:29;9.20;99.90
39925;DHT22;25592;49.986;11.618;2024-03-02T09:27:14;9.20;99.90
39925;DHT22;25592;49.986;11.618;2024-03-02T09:30:00;9.20;99.90
39925;DHT22;25592;49.986;11.618;2024-03-02T09:32:45;9.40;99.90
39925;DHT22;25592;49.986;11.618;2024-03-02T09:35:34;9.40;99.90
39925;DHT22;25592;49.986;11.618;2024-03-02T09:38:19;9.50;99.90
39925;DHT22;25592;49.986;11.618;2024-03-02T09:41:05;9.60;99.90
39925;DHT22;25592;49.986;11.618;2024-03-02T09:43:51;9.60;99.90
39925;DHT22;25592;49.986;11.618;2024-03-02T09:46:37;9.80;99.90
39925;DHT22;25592;49.986;11.618;2024-03-02T09:49:22;10.00;99.90
39925;DHT22;25592;49.986;11.618;2024-03-02T09:52:08;10.00;99.90
39925;DHT22;25592;49.986;11.618;2024-03-02T09:54:54;10.10;99.90
39925;DHT22;25592;49.986;11.618;2024-03-02T09:57:40;10.40;99.90
39925;DHT22;25592;49.986;11.618;2024-03-02T10:00:27;10.60;99.90
39925;DHT22;25592;49.986;11.618;2024-03-02T10:03:12;10.60;99.90
39925;DHT22;25592;49.986;11.618;2024-03-02T10:09:03;10.70;99.90
39925;DHT22;25592;49.986;11.618;2024-03-02T10:11:49;10.90;99.90
39925;DHT22;25592;49.986;11.618;2024-03-02T10:14:35;11.00;99.90
39925;DHT22;25592;49.986;11.618;2024-03-02T10:17:20;11.10;99.90
39925;DHT22;25592;49.986;11.618;2024-03-02T10:20:22;11.20;99.90
39925;DHT22;25592;49.986;11.618;2024-03-02T10:23:15;11.40;99.90
39925;DHT22;25592;49.986;11.618;2024-03-02T10:26:02;11.20;99.90
39925;DHT22;25592;49.986;11.618;2024-03-02T10:28:55;11.00;99.90
39925;DHT22;25592;49.986;11.618;2024-03-02T10:31:45;11.00;99.90
39925;DHT22;25592;49.986;11.618;2024-03-02T10:34:31;10.90;99.90
39925;DHT22;25592;49.986;11.618;2024-03-02T10:37:16;10.80;99.90
39925;DHT22;25592;49.986;11.618;2024-03-02T10:40:05;10.90;99.90
39925;DHT22;25592;49.986;11.618;2024-03-02T10:42:50;11.20;99.90
39925;DHT22;25592;49.986;11.618;2024-03-02T10:45:37;11.60;99.90
39925;DHT22;25592;49.986;11.618;2024-03-02T10:48:26;11.60;99.90
39925;DHT22;25592;49.986;11.618;2024-03-02T10:51:12;11.70;99.90
39925;DHT22;25592;49.986;11.618;2024-03-02T10:54:02;11.50;99.90
39925;DHT22;25592;49.986;11.618;2024-03-02T10:56:47;11.60;99.90
39925;DHT22;25592;49.986;11.618;2024-03-02T10:59:34;11.60;99.90
39925;DHT22;25592;49.986;11.618;2024-03-02T11:02:21;11.50;99.90
39925;DHT22;25592;49.986;11.618;2024-03-02T11:05:10;11.20;99.90
39925;DHT22;25592;49.986;11.618;2024-03-02T11:08:02;11.10;99.90
39925;DHT22;25592;49.986;11.618;2024-03-02T11:10:54;10.80;99.90
39925;DHT22;25592;49.986;11.618;2024-03-02T11:13:47;11.40;99.90
39925;DHT22;25592;49.986;11.618;2024-03-02T11:16:36;11.30;99.90
39925;DHT22;25592;49.986;11.618;2024-03-02T11:19:22;11.70;99.90
39925;DHT22;25592;49.986;11.618;2024-03-02T11:22:09;11.90;99.90
39925;DHT22;25592;49.986;11.618;2024-03-02T11:24:55;11.70;99.90
39925;DHT22;25592;49.986;11.618;2024-03-02T11:33:23;11.60;99.90
39925;DHT22;25592;49.986;11.618;2024-03-02T11:36:09;12.00;99.90
39925;DHT22;25592;49.986;11.618;2024-03-02T11:38:56;11.80;99.90
39925;DHT22;25592;49.986;11.618;2024-03-02T11:41:42;11.90;99.90
39925;DHT22;25592;49.986;11.618;2024-03-02T11:44:28;12.00;99.90
39925;DHT22;25592;49.986;11.618;2024-03-02T11:47:15;12.00;99.90
39925;DHT22;25592;49.986;11.618;2024-03-02T11:50:00;11.80;99.90
39925;DHT22;25592;49.986;11.618;2024-03-02T11:52:46;11.90;99.90
39925;DHT22;25592;49.986;11.618;2024-03-02T11:55:35;11.80;99.90
39925;DHT22;25592;49.986;11.618;2024-03-02T11:58:21;11.80;99.90
39925;DHT22;25592;49.986;11.618;2024-03-02T12:01:10;12.00;99.90
39925;DHT22;25592;49.986;11.618;2024-03-02T12:03:56;12.30;99.90
39925;DHT22;25592;49.986;11.618;2024-03-02T12:06:43;12.40;99.90
39925;DHT22;25592;49.986;11.618;2024-03-02T12:09:29;12.40;99.90
39925;DHT22;25592;49.986;11.618;2024-03-02T12:12:15;12.50;99.90
39925;DHT22;25592;49.986;11.618;2024-03-02T12:15:06;12.50;99.90
39925;DHT22;25592;49.986;11.618;2024-03-02T12:17:56;12.60;99.90
39925;DHT22;25592;49.986;11.618;2024-03-02T12:20:41;12.60;99.90
39925;DHT22;25592;49.986;11.618;2024-03-02T12:23:27;12.80;99.90
39925;DHT22;25592;49.986;11.618;2024-03-02T12:26:13;12.80;99.90
39925;DHT22;25592;49.986;11.618;2024-03-02T12:28:58;12.90;99.90
39925;DHT22;25592;49.986;11.618;2024-03-02T12:31:44;12.70;99.90
39925;DHT22;25592;49.986;11.618;2024-03-02T12:34:31;12.70;99.90
39925;DHT22;25592;49.986;11.618;2024-03-02T12:37:16;13.10;99.90
39925;DHT22;25592;49.986;11.618;2024-03-02T12:40:02;13.30;99.90
39925;DHT22;25592;49.986;11.618;2024-03-02T12:42:48;13.30;99.90
39925;DHT22;25592;49.986;11.618;2024-03-02T12:45:34;12.90;99.90
39925;DHT22;25592;49.986;11.618;2024-03-02T12:48:20;12.70;99.90
39925;DHT22;25592;49.986;11.618;2024-03-02T12:51:06;12.70;99.90
39925;DHT22;25592;49.986;11.618;2024-03-02T12:53:55;12.80;99.90
39925;DHT22;25592;49.986;11.618;2024-03-02T12:56:42;13.30;99.90
39925;DHT22;25592;49.986;11.618;2024-03-02T12:59:31;13.70;99.90
39925;DHT22;25592;49.986;11.618;2024-03-02T13:02:20;13.60;99.90
39925;DHT22;25592;49.986;11.618;2024-03-02T13:05:06;13.70;99.90
39925;DHT22;25592;49.986;11.618;2024-03-02T13:07:56;13.70;99.90
39925;DHT22;25592;49.986;11.618;2024-03-02T13:10:42;13.60;99.90
39925;DHT22;25592;49.986;11.618;2024-03-02T13:13:31;13.40;99.90
39925;DHT22;25592;49.986;11.618;2024-03-02T13:16:16;13.60;99.90
39925;DHT22;25592;49.986;11.618;2024-03-02T13:19:11;13.40;99.90
39925;DHT22;25592;49.986;11.618;2024-03-02T13:21:57;13.00;99.90
39925;DHT22;25592;49.986;11.618;2024-03-02T13:24:42;13.10;99.90
39925;DHT22;25592;49.986;11.618;2024-03-02T13:27:28;13.00;99.90
39925;DHT22;25592;49.986;11.618;2024-03-02T13:30:13;12.90;99.90
39925;DHT22;25592;49.986;11.618;2024-03-02T13:32:59;12.80;99.90
39925;DHT22;25592;49.986;11.618;2024-03-02T13:35:44;12.70;99.90
39925;DHT22;25592;49.986;11.618;2024-03-02T13:38:30;12.80;99.90
39925;DHT22;25592;49.986;11.618;2024-03-02T13:41:15;13.00;99.90
39925;DHT22;25592;49.986;11.618;2024-03-02T13:44:01;13.20;99.90
39925;DHT22;25592;49.986;11.618;2024-03-02T13:46:47;13.10;99.90
39925;DHT22;25592;49.986;11.618;2024-03-02T13:49:33;13.70;99.90
39925;DHT22;25592;49.986;11.618;2024-03-02T13:52:23;14.20;99.90
39925;DHT22;25592;49.986;11.618;2024-03-02T13:55:10;14.20;99.90
39925;DHT22;25592;49.986;11.618;2024-03-02T13:57:56;14.00;99.90
39925;DHT22;25592;49.986;11.618;2024-03-02T14:00:41;13.80;99.90
39925;DHT22;25592;49.986;11.618;2024-03-02T14:03:27;13.80;99.90
39925;DHT22;25592;49.986;11.618;2024-03-02T14:06:15;13.80;99.90
39925;DHT22;25592;49.986;11.618;2024-03-02T14:09:01;14.00;99.90
39925;DHT22;25592;49.986;11.618;2024-03-02T14:11:47;14.30;99.90
39925;DHT22;25592;49.986;11.618;2024-03-02T14:14:32;14.30;99.90
39925;DHT22;25592;49.986;11.618;2024-03-02T14:17:18;13.90;99.90
39925;DHT22;25592;49.986;11.618;2024-03-02T14:20:04;13.70;99.90
39925;DHT22;25592;49.986;11.618;2024-03-02T14:22:49;13.80;99.90
39925;DHT22;25592;49.986;11.618;2024-03-02T14:25:35;14.10;99.90
39925;DHT22;25592;49.986;11.618;2024-03-02T14:28:20;14.10;99.90
39925;DHT22;25592;49.986;11.618;2024-03-02T14:31:26;14.10;99.90
39925;DHT22;25592;49.986;11.618;2024-03-02T14:34:11;14.10;99.90
39925;DHT22;25592;49.986;11.618;2024-03-02T14:36:57;14.30;99.90
39925;DHT22;25592;49.986;11.618;2024-03-02T14:39:43;14.40;99.90
39925;DHT22;25592;49.986;11.618;2024-03-02T14:42:28;14.50;99.90
39925;DHT22;25592;49.986;11.618;2024-03-02T14:45:16;14.30;99.90
39925;DHT22;25592;49.986;11.618;2024-03-02T14:48:03;14.00;99.90
39925;DHT22;25592;49.986;11.618;2024-03-02T14:50:48;13.90;99.90
39925;DHT22;25592;49.986;11.618;2024-03-02T14:53:35;13.70;99.90
39925;DHT22;25592;49.986;11.618;2024-03-02T14:56:21;13.60;99.90
39925;DHT22;25592;49.986;11.618;2024-03-02T14:59:07;13.50;99.90
39925;DHT22;25592;49.986;11.618;2024-03-02T15:01:52;13.30;99.90
39925;DHT22;25592;49.986;11.618;2024-03-02T15:04:38;13.10;99.90
39925;DHT22;25592;49.986;11.618;2024-03-02T15:07:23;13.30;99.90
39925;DHT22;25592;49.986;11.618;2024-03-02T15:10:09;13.40;99.90
39925;DHT22;25592;49.986;11.618;2024-03-02T15:12:54;13.90;99.90
39925;DHT22;25592;49.986;11.618;2024-03-02T15:15:41;14.20;99.90
39925;DHT22;25592;49.986;11.618;2024-03-02T15:18:26;14.20;99.90
39925;DHT22;25592;49.986;11.618;2024-03-02T15:21:12;14.10;99.90
39925;DHT22;25592;49.986;11.618;2024-03-02T15:23:58;13.70;99.90
39925;DHT22;25592;49.986;11.618;2024-03-02T15:26:43;13.50;99.90
39925;DHT22;25592;49.986;11.618;2024-03-02T15:29:29;13.20;99.90
39925;DHT22;25592;49.986;11.618;2024-03-02T15:32:16;13.00;99.90
39925;DHT22;25592;49.986;11.618;2024-03-02T15:35:02;13.00;99.90
39925;DHT22;25592;49.986;11.618;2024-03-02T15:37:48;13.10;99.90
39925;DHT22;25592;49.986;11.618;2024-03-02T15:40:33;13.00;99.90
39925;DHT22;25592;49.986;11.618;2024-03-02T15:43:18;12.90;99.90
39925;DHT22;25592;49.986;11.618;2024-03-02T15:46:04;13.00;99.90
39925;DHT22;25592;49.986;11.618;2024-03-02T15:48:50;13.10;99.90
39925;DHT22;25592;49.986;11.618;2024-03-02T15:51:36;13.30;99.90
39925;DHT22;25592;49.986;11.618;2024-03-02T15:54:25;13.20;99.90
39925;DHT22;25592;49.986;11.618;2024-03-02T15:57:10;13.10;99.90
39925;DHT22;25592;49.986;11.618;2024-03-02T15:59:56;13.00;99.90
39925;DHT22;25592;49.986;11.618;2024-03-02T16:02:42;12.80;99.90
39925;DHT22;25592;49.986;11.618;2024-03-02T16:05:28;12.70;99.90
39925;DHT22;25592;49.986;11.618;2024-03-02T16:08:13;12.90;99.90
39925;DHT22;25592;49.986;11.618;2024-03-02T16:10:58;12.90;99.90
39925;DHT22;25592;49.986;11.618;2024-03-02T16:13:47;12.90;99.90
39925;DHT22;25592;49.986;11.618;2024-03-02T16:16:32;12.90;99.90
39925;DHT22;25592;49.986;11.618;2024-03-02T16:19:18;13.00;99.90
39925;DHT22;25592;49.986;11.618;2024-03-02T16:22:16;13.10;99.90
39925;DHT22;25592;49.986;11.618;2024-03-02T16:25:02;13.10;99.90
39925;DHT22;25592;49.986;11.618;2024-03-02T16:27:48;13.10;99.90
39925;DHT22;25592;49.986;11.618;2024-03-02T16:30:34;13.10;99.90
39925;DHT22;25592;49.986;11.618;2024-03-02T16:33:19;13.20;99.90
39925;DHT22;25592;49.986;11.618;2024-03-02T16:36:05;13.20;99.90
39925;DHT22;25592;49.986;11.618;2024-03-02T16:38:50;13.10;99.90
39925;DHT22;25592;49.986;11.618;2024-03-02T16:41:36;13.10;99.90
39925;DHT22;25592;49.986;11.618;2024-03-02T16:44:25;13.10;99.90
39925;DHT22;25592;49.986;11.618;2024-03-02T16:47:11;13.10;99.90
39925;DHT22;25592;49.986;11.618;2024-03-02T16:49:58;13.10;99.90
39925;DHT22;25592;49.986;11.618;2024-03-02T16:52:45;13.00;99.90
39925;DHT22;25592;49.986;11.618;2024-03-02T16:55:30;12.90;99.90
39925;DHT22;25592;49.986;11.618;2024-03-02T16:58:16;12.80;99.90
39925;DHT22;25592;49.986;11.618;2024-03-02T17:01:03;12.70;99.90
39925;DHT22;25592;49.986;11.618;2024-03-02T17:03:48;12.60;99.90
39925;DHT22;25592;49.986;11.618;2024-03-02T17:06:34;12.60;99.90
39925;DHT22;25592;49.986;11.618;2024-03-02T17:09:19;12.50;99.90
39925;DHT22;25592;49.986;11.618;2024-03-02T17:12:05;12.40;99.90
39925;DHT22;25592;49.986;11.618;2024-03-02T17:14:51;12.40;99.90
39925;DHT22;25592;49.986;11.618;2024-03-02T17:17:36;12.30;99.90
39925;DHT22;25592;49.986;11.618;2024-03-02T17:20:22;12.30;99.90
39925;DHT22;25592;49.986;11.618;2024-03-02T17:23:09;12.20;99.90
39925;DHT22;25592;49.986;11.618;2024-03-02T17:25:54;12.10;99.90
39925;DHT22;25592;49.986;11.618;2024-03-02T17:28:40;12.10;99.90
39925;DHT22;25592;49.986;11.618;2024-03-02T17:31:26;12.10;99.90
39925;DHT22;25592;49.986;11.618;2024-03-02T17:34:12;12.10;99.90
39925;DHT22;25592;49.986;11.618;2024-03-02T17:36:57;12.00;99.90